Oakland, California
Current Conditions -  °F | °C
As of 3:53 AM on Saturday 25 Oct 2014 (Local Time) from KOAK Reporting Station
Overcast Overcast  
Wind Chill: 66°   Ceiling: 4400
Heat Index: 66°   Visibility: 10mi
Dew Point: 55°   Wind: 20mph
Humidity: 68%   Direction: 150°SSE
Pressure: 29.89"   Gusts: NA
Location:  37.81°N, 122.27°W
Report Text: KOAK 251053Z 15017KT 10SM SCT034 BKN044 OVC060 19/13 A2989 RMK AO2 SLP121 T01890128
Loading
Personal Weather Stations






























Interactive Weather Map
Tropical Storm Tracking
New forecast layout! Learn more

10-Day Weather Forecast

Advertisements
Track Severe Weather on mobile